sensor_id;sensor_type;location;lat;lon;timestamp;pressure;altitude;pressure_sealevel;temperature
79756;BMP280;69239;50.678;12.280;2024-03-23T00:55:44;96762.34;;;10.36
79756;BMP280;69239;50.678;12.280;2024-03-23T00:58:09;96748.94;;;10.28
79756;BMP280;69239;50.678;12.280;2024-03-23T01:00:35;96753.09;;;10.29
79756;BMP280;69239;50.678;12.280;2024-03-23T01:03:00;96753.28;;;10.24
79756;BMP280;69239;50.678;12.280;2024-03-23T01:05:27;96751.97;;;10.18
79756;BMP280;69239;50.678;12.280;2024-03-23T01:07:52;96746.56;;;10.15
79756;BMP280;69239;50.678;12.280;2024-03-23T01:10:17;96735.03;;;10.07
79756;BMP280;69239;50.678;12.280;2024-03-23T01:12:42;96742.16;;;10.07
79756;BMP280;69239;50.678;12.280;2024-03-23T01:15:09;96736.00;;;10.03
79756;BMP280;69239;50.678;12.280;2024-03-23T01:17:34;96725.34;;;9.99
79756;BMP280;69239;50.678;12.280;2024-03-23T01:19:59;96727.09;;;9.95
79756;BMP280;69239;50.678;12.280;2024-03-23T01:22:25;96720.50;;;9.89
79756;BMP280;69239;50.678;12.280;2024-03-23T01:24:50;96721.16;;;9.86
79756;BMP280;69239;50.678;12.280;2024-03-23T01:27:15;96715.00;;;9.82
79756;BMP280;69239;50.678;12.280;2024-03-23T01:29:40;96714.75;;;9.75
79756;BMP280;69239;50.678;12.280;2024-03-23T01:32:06;96702.44;;;9.66
79756;BMP280;69239;50.678;12.280;2024-03-23T01:34:32;96708.97;;;9.60
79756;BMP280;69239;50.678;12.280;2024-03-23T01:36:57;96707.50;;;9.51
79756;BMP280;69239;50.678;12.280;2024-03-23T01:39:23;96698.88;;;9.42
79756;BMP280;69239;50.678;12.280;2024-03-23T01:41:48;96706.00;;;9.41
79756;BMP280;69239;50.678;12.280;2024-03-23T01:44:13;96707.75;;;9.37
79756;BMP280;69239;50.678;12.280;2024-03-23T01:46:38;96702.22;;;9.30
79756;BMP280;69239;50.678;12.280;2024-03-23T01:49:08;96700.22;;;9.27
79756;BMP280;69239;50.678;12.280;2024-03-23T01:51:34;96698.69;;;9.26
79756;BMP280;69239;50.678;12.280;2024-03-23T01:54:01;96691.00;;;9.21
79756;BMP280;69239;50.678;12.280;2024-03-23T01:56:32;96694.72;;;9.20
79756;BMP280;69239;50.678;12.280;2024-03-23T01:59:06;96696.88;;;9.18
79756;BMP280;69239;50.678;12.280;2024-03-23T02:01:32;96702.13;;;9.18
79756;BMP280;69239;50.678;12.280;2024-03-23T02:03:58;96682.56;;;9.06
79756;BMP280;69239;50.678;12.280;2024-03-23T02:06:27;96684.41;;;9.06
79756;BMP280;69239;50.678;12.280;2024-03-23T02:08:56;96679.94;;;9.06
79756;BMP280;69239;50.678;12.280;2024-03-23T02:11:21;96663.91;;;8.99
79756;BMP280;69239;50.678;12.280;2024-03-23T02:13:46;96660.59;;;8.90
79756;BMP280;69239;50.678;12.280;2024-03-23T02:16:13;96659.66;;;8.86
79756;BMP280;69239;50.678;12.280;2024-03-23T02:18:40;96665.09;;;8.81
79756;BMP280;69239;50.678;12.280;2024-03-23T02:21:07;96667.88;;;8.76
79756;BMP280;69239;50.678;12.280;2024-03-23T02:23:33;96656.81;;;8.70
79756;BMP280;69239;50.678;12.280;2024-03-23T02:26:03;96639.72;;;8.56
79756;BMP280;69239;50.678;12.280;2024-03-23T02:28:29;96651.16;;;8.60
79756;BMP280;69239;50.678;12.280;2024-03-23T02:30:54;96644.66;;;8.57
79756;BMP280;69239;50.678;12.280;2024-03-23T02:33:19;96642.25;;;8.52
79756;BMP280;69239;50.678;12.280;2024-03-23T02:35:46;96637.91;;;8.48
79756;BMP280;69239;50.678;12.280;2024-03-23T02:38:12;96627.28;;;8.44
79756;BMP280;69239;50.678;12.280;2024-03-23T02:40:38;96621.91;;;8.40
79756;BMP280;69239;50.678;12.280;2024-03-23T02:43:05;96623.44;;;8.41
79756;BMP280;69239;50.678;12.280;2024-03-23T02:45:30;96629.00;;;8.40
79756;BMP280;69239;50.678;12.280;2024-03-23T02:47:56;96625.13;;;8.37
79756;BMP280;69239;50.678;12.280;2024-03-23T02:50:21;96622.06;;;8.35
79756;BMP280;69239;50.678;12.280;2024-03-23T02:52:47;96620.09;;;8.32
79756;BMP280;69239;50.678;12.280;2024-03-23T02:55:13;96615.44;;;8.29
79756;BMP280;69239;50.678;12.280;2024-03-23T02:57:38;96619.78;;;8.25
79756;BMP280;69239;50.678;12.280;2024-03-23T03:00:04;96608.09;;;8.14
79756;BMP280;69239;50.678;12.280;2024-03-23T03:02:31;96599.50;;;8.05
79756;BMP280;69239;50.678;12.280;2024-03-23T03:04:56;96601.38;;;7.96
79756;BMP280;69239;50.678;12.280;2024-03-23T03:07:21;96601.09;;;7.89
79756;BMP280;69239;50.678;12.280;2024-03-23T03:09:47;96606.47;;;7.83
79756;BMP280;69239;50.678;12.280;2024-03-23T03:12:12;96601.38;;;7.78
79756;BMP280;69239;50.678;12.280;2024-03-23T03:14:37;96602.00;;;7.75
79756;BMP280;69239;50.678;12.280;2024-03-23T03:17:02;96600.00;;;7.72
79756;BMP280;69239;50.678;12.280;2024-03-23T03:19:28;96590.13;;;7.69
79756;BMP280;69239;50.678;12.280;2024-03-23T03:21:53;96580.91;;;7.63
79756;BMP280;69239;50.678;12.280;2024-03-23T03:24:19;96582.75;;;7.63
79756;BMP280;69239;50.678;12.280;2024-03-23T03:26:44;96584.78;;;7.57
79756;BMP280;69239;50.678;12.280;2024-03-23T03:29:09;96572.28;;;7.45
79756;BMP280;69239;50.678;12.280;2024-03-23T03:31:35;96568.44;;;7.43
79756;BMP280;69239;50.678;12.280;2024-03-23T03:34:00;96569.66;;;7.37
79756;BMP280;69239;50.678;12.280;2024-03-23T03:36:25;96559.19;;;7.28
79756;BMP280;69239;50.678;12.280;2024-03-23T03:38:51;96549.31;;;7.25
79756;BMP280;69239;50.678;12.280;2024-03-23T03:41:16;96536.13;;;7.21
79756;BMP280;69239;50.678;12.280;2024-03-23T03:43:41;96523.94;;;7.17
79756;BMP280;69239;50.678;12.280;2024-03-23T03:46:06;96522.41;;;7.07
79756;BMP280;69239;50.678;12.280;2024-03-23T03:48:33;96524.22;;;6.98
79756;BMP280;69239;50.678;12.280;2024-03-23T03:50:59;96532.06;;;6.89
79756;BMP280;69239;50.678;12.280;2024-03-23T03:53:24;96538.81;;;6.82
79756;BMP280;69239;50.678;12.280;2024-03-23T03:55:49;96516.78;;;6.74
79756;BMP280;69239;50.678;12.280;2024-03-23T03:58:14;96508.94;;;6.74
79756;BMP280;69239;50.678;12.280;2024-03-23T04:00:40;96497.88;;;6.69
79756;BMP280;69239;50.678;12.280;2024-03-23T04:03:07;96498.69;;;6.69
79756;BMP280;69239;50.678;12.280;2024-03-23T04:05:32;96487.56;;;6.64
79756;BMP280;69239;50.678;12.280;2024-03-23T04:07:57;96487.25;;;6.65
79756;BMP280;69239;50.678;12.280;2024-03-23T04:10:23;96490.78;;;6.60
79756;BMP280;69239;50.678;12.280;2024-03-23T04:12:48;96476.16;;;6.59
79756;BMP280;69239;50.678;12.280;2024-03-23T04:15:13;96474.00;;;6.53
79756;BMP280;69239;50.678;12.280;2024-03-23T04:17:39;96476.63;;;6.53
79756;BMP280;69239;50.678;12.280;2024-03-23T04:20:05;96472.47;;;6.52
79756;BMP280;69239;50.678;12.280;2024-03-23T04:22:36;96462.31;;;6.50
79756;BMP280;69239;50.678;12.280;2024-03-23T04:25:01;96453.72;;;6.50
79756;BMP280;69239;50.678;12.280;2024-03-23T04:27:32;96445.88;;;6.50
79756;BMP280;69239;50.678;12.280;2024-03-23T04:29:57;96438.78;;;6.50
79756;BMP280;69239;50.678;12.280;2024-03-23T04:32:23;96451.88;;;6.50
79756;BMP280;69239;50.678;12.280;2024-03-23T04:34:48;96429.56;;;6.44
79756;BMP280;69239;50.678;12.280;2024-03-23T04:37:13;96425.88;;;6.45
79756;BMP280;69239;50.678;12.280;2024-03-23T04:39:38;96397.88;;;6.37
79756;BMP280;69239;50.678;12.280;2024-03-23T04:42:04;96420.66;;;6.45
79756;BMP280;69239;50.678;12.280;2024-03-23T04:44:31;96429.56;;;6.44
79756;BMP280;69239;50.678;12.280;2024-03-23T04:46:57;96427.25;;;6.43
79756;BMP280;69239;50.678;12.280;2024-03-23T04:49:22;96424.16;;;6.41
79756;BMP280;69239;50.678;12.280;2024-03-23T04:51:49;96411.25;;;6.36
79756;BMP280;69239;50.678;12.280;2024-03-23T04:54:14;96393.72;;;6.36
79756;BMP280;69239;50.678;12.280;2024-03-23T04:56:40;96385.88;;;6.36
79756;BMP280;69239;50.678;12.280;2024-03-23T04:59:05;96375.44;;;6.36
79756;BMP280;69239;50.678;12.280;2024-03-23T05:01:31;96378.81;;;6.37
79756;BMP280;69239;50.678;12.280;2024-03-23T05:03:57;96393.09;;;6.39
79756;BMP280;69239;50.678;12.280;2024-03-23T05:06:26;96394.81;;;6.44
79756;BMP280;69239;50.678;12.280;2024-03-23T05:08:52;96386.06;;;6.48
79756;BMP280;69239;50.678;12.280;2024-03-23T05:11:17;96380.66;;;6.53
79756;BMP280;69239;50.678;12.280;2024-03-23T05:13:44;96366.81;;;6.53
79756;BMP280;69239;50.678;12.280;2024-03-23T05:16:10;96364.69;;;6.64
79756;BMP280;69239;50.678;12.280;2024-03-23T05:18:35;96366.97;;;6.65
79756;BMP280;69239;50.678;12.280;2024-03-23T05:21:01;96373.28;;;6.64
79756;BMP280;69239;50.678;12.280;2024-03-23T05:23:28;96374.97;;;6.60
79756;BMP280;69239;50.678;12.280;2024-03-23T05:25:53;96377.91;;;6.58
79756;BMP280;69239;50.678;12.280;2024-03-23T05:28:19;96349.59;;;6.52
79756;BMP280;69239;50.678;12.280;2024-03-23T05:30:54;96344.84;;;6.54
79756;BMP280;69239;50.678;12.280;2024-03-23T05:33:20;96354.53;;;6.53
79756;BMP280;69239;50.678;12.280;2024-03-23T05:35:46;96345.59;;;6.54
79756;BMP280;69239;50.678;12.280;2024-03-23T05:38:12;96343.47;;;6.56
79756;BMP280;69239;50.678;12.280;2024-03-23T05:40:38;96336.09;;;6.58
79756;BMP280;69239;50.678;12.280;2024-03-23T05:43:08;96340.66;;;6.61
79756;BMP280;69239;50.678;12.280;2024-03-23T05:45:34;96326.53;;;6.63
79756;BMP280;69239;50.678;12.280;2024-03-23T05:47:59;96326.69;;;6.66
79756;BMP280;69239;50.678;12.280;2024-03-23T05:50:25;96324.53;;;6.68
79756;BMP280;69239;50.678;12.280;2024-03-23T05:52:50;96312.72;;;6.71
79756;BMP280;69239;50.678;12.280;2024-03-23T05:55:15;96315.75;;;6.73
79756;BMP280;69239;50.678;12.280;2024-03-23T05:57:41;96319.75;;;6.79
79756;BMP280;69239;50.678;12.280;2024-03-23T06:00:06;96311.28;;;6.82
79756;BMP280;69239;50.678;12.280;2024-03-23T06:02:40;96296.50;;;6.86
79756;BMP280;69239;50.678;12.280;2024-03-23T06:05:06;96283.09;;;6.87
79756;BMP280;69239;50.678;12.280;2024-03-23T06:07:31;96275.88;;;6.93
79756;BMP280;69239;50.678;12.280;2024-03-23T06:09:56;96269.56;;;6.94
79756;BMP280;69239;50.678;12.280;2024-03-23T06:12:23;96268.75;;;7.02
79756;BMP280;69239;50.678;12.280;2024-03-23T06:14:49;96264.91;;;7.08
79756;BMP280;69239;50.678;12.280;2024-03-23T06:17:15;96261.22;;;7.09
79756;BMP280;69239;50.678;12.280;2024-03-23T06:19:40;96257.78;;;7.17
79756;BMP280;69239;50.678;12.280;2024-03-23T06:22:06;96258.03;;;7.25
79756;BMP280;69239;50.678;12.280;2024-03-23T06:24:31;96249.72;;;7.31
79756;BMP280;69239;50.678;12.280;2024-03-23T06:26:57;96239.81;;;7.37
79756;BMP280;69239;50.678;12.280;2024-03-23T06:29:22;96239.66;;;7.42
79756;BMP280;69239;50.678;12.280;2024-03-23T06:31:53;96240.03;;;7.52
79756;BMP280;69239;50.678;12.280;2024-03-23T06:34:18;96219.25;;;7.56
79756;BMP280;69239;50.678;12.280;2024-03-23T06:36:44;96234.56;;;7.66
79756;BMP280;69239;50.678;12.280;2024-03-23T06:39:09;96226.53;;;7.71
79756;BMP280;69239;50.678;12.280;2024-03-23T06:41:37;96215.72;;;7.73
79756;BMP280;69239;50.678;12.280;2024-03-23T06:44:03;96222.13;;;7.84
79756;BMP280;69239;50.678;12.280;2024-03-23T06:46:29;96205.91;;;7.91
79756;BMP280;69239;50.678;12.280;2024-03-23T06:48:55;96193.94;;;8.02
79756;BMP280;69239;50.678;12.280;2024-03-23T06:51:21;96189.41;;;8.11
79756;BMP280;69239;50.678;12.280;2024-03-23T06:53:46;96188.09;;;8.17
79756;BMP280;69239;50.678;12.280;2024-03-23T06:56:11;96196.75;;;8.30
79756;BMP280;69239;50.678;12.280;2024-03-23T06:58:36;96180.81;;;8.35
79756;BMP280;69239;50.678;12.280;2024-03-23T07:01:02;96175.16;;;8.45
79756;BMP280;69239;50.678;12.280;2024-03-23T07:03:27;96172.47;;;8.54
79756;BMP280;69239;50.678;12.280;2024-03-23T07:05:52;96173.88;;;8.63
79756;BMP280;69239;50.678;12.280;2024-03-23T07:08:17;96192.13;;;8.72
79756;BMP280;69239;50.678;12.280;2024-03-23T07:10:47;96184.81;;;8.78
79756;BMP280;69239;50.678;12.280;2024-03-23T07:13:12;96181.44;;;8.89
79756;BMP280;69239;50.678;12.280;2024-03-23T07:15:37;96173.44;;;8.98
79756;BMP280;69239;50.678;12.280;2024-03-23T07:18:03;96183.47;;;9.08
79756;BMP280;69239;50.678;12.280;2024-03-23T07:20:28;96181.19;;;9.19
79756;BMP280;69239;50.678;12.280;2024-03-23T07:22:55;96185.69;;;9.30
79756;BMP280;69239;50.678;12.280;2024-03-23T07:25:20;96182.69;;;9.44
79756;BMP280;69239;50.678;12.280;2024-03-23T07:27:48;96176.75;;;9.59
79756;BMP280;69239;50.678;12.280;2024-03-23T07:30:13;96182.25;;;9.70
79756;BMP280;69239;50.678;12.280;2024-03-23T07:32:38;96169.66;;;9.76
79756;BMP280;69239;50.678;12.280;2024-03-23T07:35:03;96175.09;;;9.83
79756;BMP280;69239;50.678;12.280;2024-03-23T07:37:29;96163.97;;;9.86
79756;BMP280;69239;50.678;12.280;2024-03-23T07:39:54;96156.91;;;9.90
79756;BMP280;69239;50.678;12.280;2024-03-23T07:42:20;96153.63;;;9.93
79756;BMP280;69239;50.678;12.280;2024-03-23T07:44:45;96150.72;;;9.98
79756;BMP280;69239;50.678;12.280;2024-03-23T07:47:11;96162.75;;;9.99
79756;BMP280;69239;50.678;12.280;2024-03-23T07:49:37;96173.72;;;10.01
79756;BMP280;69239;50.678;12.280;2024-03-23T07:52:02;96180.19;;;10.04
79756;BMP280;69239;50.678;12.280;2024-03-23T07:54:27;96181.03;;;10.08
79756;BMP280;69239;50.678;12.280;2024-03-23T07:56:53;96175.84;;;10.11
79756;BMP280;69239;50.678;12.280;2024-03-23T07:59:19;96178.88;;;10.13
79756;BMP280;69239;50.678;12.280;2024-03-23T08:01:44;96181.22;;;10.15
79756;BMP280;69239;50.678;12.280;2024-03-23T08:04:11;96185.78;;;10.18
79756;BMP280;69239;50.678;12.280;2024-03-23T08:06:37;96190.41;;;10.21
79756;BMP280;69239;50.678;12.280;2024-03-23T08:09:02;96179.59;;;10.26
79756;BMP280;69239;50.678;12.280;2024-03-23T08:11:29;96175.56;;;10.28
79756;BMP280;69239;50.678;12.280;2024-03-23T08:13:54;96181.75;;;10.36
79756;BMP280;69239;50.678;12.280;2024-03-23T08:16:20;96182.53;;;10.37
79756;BMP280;69239;50.678;12.280;2024-03-23T08:18:45;96182.69;;;10.44
79756;BMP280;69239;50.678;12.280;2024-03-23T08:21:10;96181.59;;;10.45
79756;BMP280;69239;50.678;12.280;2024-03-23T08:23:36;96182.09;;;10.50
79756;BMP280;69239;50.678;12.280;2024-03-23T08:26:07;96196.00;;;10.51
79756;BMP280;69239;50.678;12.280;2024-03-23T08:28:33;96185.06;;;10.49
79756;BMP280;69239;50.678;12.280;2024-03-23T08:31:04;96234.78;;;10.54
79756;BMP280;69239;50.678;12.280;2024-03-23T08:33:33;96249.81;;;10.53
79756;BMP280;69239;50.678;12.280;2024-03-23T08:36:03;96252.78;;;10.52
79756;BMP280;69239;50.678;12.280;2024-03-23T08:38:29;96244.94;;;10.40
79756;BMP280;69239;50.678;12.280;2024-03-23T08:41:05;96268.88;;;10.35
79756;BMP280;69239;50.678;12.280;2024-03-23T08:43:41;96305.69;;;10.35
79756;BMP280;69239;50.678;12.280;2024-03-23T08:46:09;96336.97;;;10.24
79756;BMP280;69239;50.678;12.280;2024-03-23T08:48:36;96351.16;;;10.07
79756;BMP280;69239;50.678;12.280;2024-03-23T08:51:05;96368.25;;;9.89
79756;BMP280;69239;50.678;12.280;2024-03-23T08:53:31;96397.09;;;9.73
79756;BMP280;69239;50.678;12.280;2024-03-23T08:55:57;96422.78;;;9.55
79756;BMP280;69239;50.678;12.280;2024-03-23T08:58:24;96422.97;;;9.26
79756;BMP280;69239;50.678;12.280;2024-03-23T09:00:50;96464.53;;;9.24
79756;BMP280;69239;50.678;12.280;2024-03-23T09:03:16;96485.06;;;9.10
79756;BMP280;69239;50.678;12.280;2024-03-23T09:05:41;96497.22;;;8.93
79756;BMP280;69239;50.678;12.280;2024-03-23T09:08:07;96495.38;;;8.73
79756;BMP280;69239;50.678;12.280;2024-03-23T09:10:38;96514.13;;;8.63
79756;BMP280;69239;50.678;12.280;2024-03-23T09:13:04;96517.72;;;8.50
79756;BMP280;69239;50.678;12.280;2024-03-23T09:15:29;96536.78;;;8.38
79756;BMP280;69239;50.678;12.280;2024-03-23T09:17:54;96539.59;;;8.24
79756;BMP280;69239;50.678;12.280;2024-03-23T09:20:19;96551.06;;;8.11
79756;BMP280;69239;50.678;12.280;2024-03-23T09:22:45;96540.16;;;8.00
79756;BMP280;69239;50.678;12.280;2024-03-23T09:25:10;96552.19;;;7.93
79756;BMP280;69239;50.678;12.280;2024-03-23T09:27:35;96564.22;;;7.85
79756;BMP280;69239;50.678;12.280;2024-03-23T09:30:00;96570.59;;;7.75
79756;BMP280;69239;50.678;12.280;2024-03-23T09:32:26;96572.44;;;7.66
79756;BMP280;69239;50.678;12.280;2024-03-23T09:34:51;96578.28;;;7.63
79756;BMP280;69239;50.678;12.280;2024-03-23T09:37:16;96593.06;;;7.59
79756;BMP280;69239;50.678;12.280;2024-03-23T09:39:41;96611.59;;;7.54
79756;BMP280;69239;50.678;12.280;2024-03-23T09:42:06;96621.72;;;7.47
79756;BMP280;69239;50.678;12.280;2024-03-23T09:44:32;96624.03;;;7.40
79756;BMP280;69239;50.678;12.280;2024-03-23T09:46:57;96612.19;;;7.34
79756;BMP280;69239;50.678;12.280;2024-03-23T09:49:22;96620.63;;;7.31
79756;BMP280;69239;50.678;12.280;2024-03-23T09:51:48;96631.41;;;7.29
79756;BMP280;69239;50.678;12.280;2024-03-23T09:54:13;96643.13;;;7.32
79756;BMP280;69239;50.678;12.280;2024-03-23T09:56:39;96657.78;;;7.33
79756;BMP280;69239;50.678;12.280;2024-03-23T09:59:04;96663.78;;;7.33
79756;BMP280;69239;50.678;12.280;2024-03-23T10:01:30;96647.56;;;7.22
79756;BMP280;69239;50.678;12.280;2024-03-23T10:03:55;96666.34;;;7.25
79756;BMP280;69239;50.678;12.280;2024-03-23T10:06:23;96687.91;;;7.21
79756;BMP280;69239;50.678;12.280;2024-03-23T10:08:53;96702.38;;;7.19
79756;BMP280;69239;50.678;12.280;2024-03-23T10:11:20;96703.94;;;7.20
79756;BMP280;69239;50.678;12.280;2024-03-23T10:13:46;96709.47;;;7.18
79756;BMP280;69239;50.678;12.280;2024-03-23T10:16:12;96711.13;;;7.14
79756;BMP280;69239;50.678;12.280;2024-03-23T10:18:38;96710.81;;;7.16
79756;BMP280;69239;50.678;12.280;2024-03-23T10:23:36;96720.72;;;7.19
79756;BMP280;69239;50.678;12.280;2024-03-23T10:26:21;96718.38;;;7.17
79756;BMP280;69239;50.678;12.280;2024-03-23T10:29:00;96711.00;;;7.19
79756;BMP280;69239;50.678;12.280;2024-03-23T10:31:33;96724.56;;;7.21
79756;BMP280;69239;50.678;12.280;2024-03-23T10:33:58;96725.97;;;7.28
79756;BMP280;69239;50.678;12.280;2024-03-23T10:36:25;96728.56;;;7.28
79756;BMP280;69239;50.678;12.280;2024-03-23T10:38:51;96734.75;;;7.32
79756;BMP280;69239;50.678;12.280;2024-03-23T10:41:17;96734.91;;;7.35
79756;BMP280;69239;50.678;12.280;2024-03-23T10:43:43;96726.47;;;7.47
79756;BMP280;69239;50.678;12.280;2024-03-23T10:46:09;96729.25;;;7.59
79756;BMP280;69239;50.678;12.280;2024-03-23T10:48:35;96735.91;;;7.74
79756;BMP280;69239;50.678;12.280;2024-03-23T10:51:00;96722.06;;;7.91
79756;BMP280;69239;50.678;12.280;2024-03-23T10:53:27;96733.59;;;8.07
79756;BMP280;69239;50.678;12.280;2024-03-23T10:55:54;96723.13;;;8.07
79756;BMP280;69239;50.678;12.280;2024-03-23T10:58:26;96742.53;;;8.23
79756;BMP280;69239;50.678;12.280;2024-03-23T11:00:53;96751.19;;;8.32
79756;BMP280;69239;50.678;12.280;2024-03-23T11:03:38;96756.44;;;8.32
79756;BMP280;69239;50.678;12.280;2024-03-23T11:06:06;96747.75;;;8.23
79756;BMP280;69239;50.678;12.280;2024-03-23T11:08:37;96748.25;;;8.08
79756;BMP280;69239;50.678;12.280;2024-03-23T11:11:19;96751.81;;;8.12
79756;BMP280;69239;50.678;12.280;2024-03-23T11:13:48;96748.25;;;8.17
79756;BMP280;69239;50.678;12.280;2024-03-23T11:16:31;96756.75;;;8.22
79756;BMP280;69239;50.678;12.280;2024-03-23T11:19:36;96755.06;;;8.18
79756;BMP280;69239;50.678;12.280;2024-03-23T11:22:02;96756.41;;;8.15
79756;BMP280;69239;50.678;12.280;2024-03-23T11:24:28;96752.91;;;8.11
79756;BMP280;69239;50.678;12.280;2024-03-23T11:26:53;96752.88;;;8.28
79756;BMP280;69239;50.678;12.280;2024-03-23T11:29:19;96753.59;;;8.55
79756;BMP280;69239;50.678;12.280;2024-03-23T11:31:49;96757.84;;;8.85
79756;BMP280;69239;50.678;12.280;2024-03-23T11:34:17;96755.66;;;8.96
79756;BMP280;69239;50.678;12.280;2024-03-23T11:36:43;96754.72;;;9.00
79756;BMP280;69239;50.678;12.280;2024-03-23T11:39:16;96760.13;;;9.04
79756;BMP280;69239;50.678;12.280;2024-03-23T11:41:56;96756.69;;;9.12
79756;BMP280;69239;50.678;12.280;2024-03-23T11:44:23;96759.25;;;9.21
79756;BMP280;69239;50.678;12.280;2024-03-23T11:46:50;96760.50;;;9.15
79756;BMP280;69239;50.678;12.280;2024-03-23T11:49:23;96776.25;;;9.15
79756;BMP280;69239;50.678;12.280;2024-03-23T11:51:48;96775.84;;;9.13
79756;BMP280;69239;50.678;12.280;2024-03-23T11:54:14;96779.25;;;9.04
79756;BMP280;69239;50.678;12.280;2024-03-23T11:56:39;96780.66;;;9.02
79756;BMP280;69239;50.678;12.280;2024-03-23T11:59:04;96788.38;;;8.98
79756;BMP280;69239;50.678;12.280;2024-03-23T12:01:30;96774.47;;;8.98
79756;BMP280;69239;50.678;12.280;2024-03-23T12:03:56;96781.22;;;9.07
79756;BMP280;69239;50.678;12.280;2024-03-23T12:06:21;96787.25;;;9.17
79756;BMP280;69239;50.678;12.280;2024-03-23T12:08:46;96775.72;;;9.39
79756;BMP280;69239;50.678;12.280;2024-03-23T12:11:17;96771.97;;;9.90
79756;BMP280;69239;50.678;12.280;2024-03-23T12:13:43;96772.31;;;10.42
79756;BMP280;69239;50.678;12.280;2024-03-23T12:16:16;96764.84;;;10.77
79756;BMP280;69239;50.678;12.280;2024-03-23T12:18:42;96764.59;;;11.19
79756;BMP280;69239;50.678;12.280;2024-03-23T12:21:08;96760.06;;;11.68
79756;BMP280;69239;50.678;12.280;2024-03-23T12:23:34;96760.72;;;12.05
79756;BMP280;69239;50.678;12.280;2024-03-23T12:25:59;96765.28;;;12.08
79756;BMP280;69239;50.678;12.280;2024-03-23T12:28:24;96764.72;;;11.99
79756;BMP280;69239;50.678;12.280;2024-03-23T12:30:51;96759.81;;;11.85
79756;BMP280;69239;50.678;12.280;2024-03-23T12:33:17;96769.41;;;11.78
79756;BMP280;69239;50.678;12.280;2024-03-23T12:35:42;96767.94;;;11.80
79756;BMP280;69239;50.678;12.280;2024-03-23T12:38:07;96769.19;;;11.71
79756;BMP280;69239;50.678;12.280;2024-03-23T12:40:32;96759.53;;;11.50
79756;BMP280;69239;50.678;12.280;2024-03-23T12:42:58;96763.97;;;11.22
79756;BMP280;69239;50.678;12.280;2024-03-23T12:45:23;96753.13;;;10.99
79756;BMP280;69239;50.678;12.280;2024-03-23T12:47:48;96756.94;;;10.89
79756;BMP280;69239;50.678;12.280;2024-03-23T12:50:13;96757.19;;;10.84
79756;BMP280;69239;50.678;12.280;2024-03-23T12:52:39;96759.13;;;10.75
79756;BMP280;69239;50.678;12.280;2024-03-23T12:55:04;96759.22;;;10.67
79756;BMP280;69239;50.678;12.280;2024-03-23T12:57:33;96758.75;;;10.52
79756;BMP280;69239;50.678;12.280;2024-03-23T12:59:58;96758.41;;;10.42
79756;BMP280;69239;50.678;12.280;2024-03-23T13:02:24;96759.94;;;10.43
79756;BMP280;69239;50.678;12.280;2024-03-23T13:04:50;96762.56;;;10.43
79756;BMP280;69239;50.678;12.280;2024-03-23T13:07:16;96751.47;;;10.94
79756;BMP280;69239;50.678;12.280;2024-03-23T13:09:41;96750.88;;;11.62
79756;BMP280;69239;50.678;12.280;2024-03-23T13:12:07;96744.91;;;11.65
79756;BMP280;69239;50.678;12.280;2024-03-23T13:14:32;96742.63;;;11.51
79756;BMP280;69239;50.678;12.280;2024-03-23T13:16:57;96747.06;;;11.35
79756;BMP280;69239;50.678;12.280;2024-03-23T13:19:23;96753.66;;;11.17
79756;BMP280;69239;50.678;12.280;2024-03-23T13:21:53;96750.56;;;11.03
79756;BMP280;69239;50.678;12.280;2024-03-23T13:24:21;96743.78;;;11.02
79756;BMP280;69239;50.678;12.280;2024-03-23T13:26:46;96743.78;;;11.02
79756;BMP280;69239;50.678;12.280;2024-03-23T13:29:12;96744.66;;;10.93
79756;BMP280;69239;50.678;12.280;2024-03-23T13:31:37;96734.47;;;10.92
79756;BMP280;69239;50.678;12.280;2024-03-23T13:34:02;96724.78;;;12.29
79756;BMP280;69239;50.678;12.280;2024-03-23T13:36:27;96725.59;;;14.08
79756;BMP280;69239;50.678;12.280;2024-03-23T13:38:53;96720.59;;;14.26
79756;BMP280;69239;50.678;12.280;2024-03-23T13:41:18;96710.31;;;13.98
79756;BMP280;69239;50.678;12.280;2024-03-23T13:43:43;96706.34;;;13.88
79756;BMP280;69239;50.678;12.280;2024-03-23T13:46:09;96702.03;;;15.61
79756;BMP280;69239;50.678;12.280;2024-03-23T13:48:34;96696.94;;;17.61
79756;BMP280;69239;50.678;12.280;2024-03-23T13:51:03;96689.34;;;19.46
79756;BMP280;69239;50.678;12.280;2024-03-23T13:53:28;96689.16;;;20.64
79756;BMP280;69239;50.678;12.280;2024-03-23T13:55:54;96679.91;;;21.56
79756;BMP280;69239;50.678;12.280;2024-03-23T13:58:20;96692.06;;;21.37
79756;BMP280;69239;50.678;12.280;2024-03-23T14:00:45;96705.22;;;19.71
79756;BMP280;69239;50.678;12.280;2024-03-23T14:03:11;96700.81;;;18.10
79756;BMP280;69239;50.678;12.280;2024-03-23T14:05:37;96699.28;;;16.86
79756;BMP280;69239;50.678;12.280;2024-03-23T14:08:09;96704.59;;;15.84
79756;BMP280;69239;50.678;12.280;2024-03-23T14:10:34;96708.25;;;15.09
79756;BMP280;69239;50.678;12.280;2024-03-23T14:13:01;96707.13;;;14.57
79756;BMP280;69239;50.678;12.280;2024-03-23T14:15:27;96703.66;;;14.07
79756;BMP280;69239;50.678;12.280;2024-03-23T14:17:53;96718.06;;;13.68
79756;BMP280;69239;50.678;12.280;2024-03-23T14:20:20;96718.09;;;13.33
79756;BMP280;69239;50.678;12.280;2024-03-23T14:22:46;96712.19;;;13.04
79756;BMP280;69239;50.678;12.280;2024-03-23T14:25:11;96714.03;;;12.84
79756;BMP280;69239;50.678;12.280;2024-03-23T14:27:36;96717.47;;;12.69
79756;BMP280;69239;50.678;12.280;2024-03-23T14:30:03;96723.50;;;12.54
79756;BMP280;69239;50.678;12.280;2024-03-23T14:32:29;96707.97;;;12.37
79756;BMP280;69239;50.678;12.280;2024-03-23T14:34:58;96702.53;;;12.14
79756;BMP280;69239;50.678;12.280;2024-03-23T14:37:24;96705.91;;;11.99
79756;BMP280;69239;50.678;12.280;2024-03-23T14:39:49;96692.22;;;11.81
79756;BMP280;69239;50.678;12.280;2024-03-23T14:42:14;96719.50;;;11.73
79756;BMP280;69239;50.678;12.280;2024-03-23T14:44:39;96707.31;;;11.68
79756;BMP280;69239;50.678;12.280;2024-03-23T14:47:05;96697.38;;;11.62
79756;BMP280;69239;50.678;12.280;2024-03-23T14:49:30;96696.50;;;11.57
79756;BMP280;69239;50.678;12.280;2024-03-23T14:51:56;96697.06;;;11.51
79756;BMP280;69239;50.678;12.280;2024-03-23T14:54:21;96689.38;;;11.46
79756;BMP280;69239;50.678;12.280;2024-03-23T14:56:46;96694.22;;;11.44